Time;durP1;ratioP1;P1;durP2;ratioP2;P2;SDS_P1;SDS_P2;PMS_P1;PMS_P2;Temp;Humidity;BMP_temperature;BMP_pressure;BME280_temperature;BME280_humidity;BME280_pressure;Samples;Min_cycle;Max_cycle;Signal;HPM_P1;HPM_P2
2021/06/24 00:00:06;;;;;;;8.88;4.10;;;;;;;16.31;68.31;101754.59;5036549;28;20036;-68
2021/06/24 00:02:32;;;;;;;5.75;3.22;;;;;;;16.27;68.64;101750.06;5019704;28;20021;-68
2021/06/24 00:04:57;;;;;;;8.38;3.40;;;;;;;16.31;68.77;101752.00;5053762;28;20033;-68
2021/06/24 00:07:23;;;;;;;8.85;3.50;;;;;;;16.28;68.49;101746.66;5053346;28;20120;-68
2021/06/24 00:09:48;;;;;;;10.57;3.83;;;;;;;16.28;69.19;101751.84;5036408;28;20100;-68
2021/06/24 00:12:14;;;;;;;12.93;3.97;;;;;;;16.23;69.05;101752.50;5053506;28;20033;-68
2021/06/24 00:14:40;;;;;;;6.97;3.65;;;;;;;16.20;69.22;101753.22;5053452;28;20065;-68
2021/06/24 00:17:05;;;;;;;10.02;3.50;;;;;;;16.18;69.23;101745.38;5036081;28;20359;-68
2021/06/24 00:19:31;;;;;;;10.60;4.15;;;;;;;16.14;69.22;101739.97;5053789;28;20360;-68
2021/06/24 00:21:56;;;;;;;7.80;4.30;;;;;;;16.12;69.69;101715.63;5053480;28;20507;-68
2021/06/24 00:24:21;;;;;;;9.27;3.58;;;;;;;16.11;69.60;101713.84;5035812;28;20020;-68
2021/06/24 00:26:47;;;;;;;8.77;4.32;;;;;;;16.12;69.50;101728.63;5053584;28;20028;-68
2021/06/24 00:29:12;;;;;;;7.53;3.45;;;;;;;16.14;69.67;101742.56;5053560;28;20031;-68
2021/06/24 00:31:38;;;;;;;8.10;3.55;;;;;;;16.10;69.56;101738.97;5053152;28;20035;-67
2021/06/24 00:34:03;;;;;;;14.52;4.47;;;;;;;16.12;69.83;101728.63;5053440;28;20056;-68
2021/06/24 00:36:28;;;;;;;12.30;3.88;;;;;;;15.99;70.41;101728.09;5053065;28;20029;-68
2021/06/24 00:38:54;;;;;;;9.48;4.03;;;;;;;15.98;70.38;101731.50;5035436;28;20029;-68
2021/06/24 00:41:19;;;;;;;14.85;4.25;;;;;;;16.05;69.92;101738.75;5035249;28;20057;-68
2021/06/24 00:43:45;;;;;;;12.10;4.22;;;;;;;16.01;70.17;101742.03;5052833;28;20067;-69
2021/06/24 00:46:10;;;;;;;9.05;3.95;;;;;;;16.04;70.13;101736.97;5035406;28;20029;-68
2021/06/24 00:48:36;;;;;;;11.77;4.35;;;;;;;16.02;70.37;101738.59;5053305;28;20029;-68
2021/06/24 00:51:01;;;;;;;11.27;3.88;;;;;;;16.00;70.24;101745.44;5052448;28;20036;-68
2021/06/24 00:53:27;;;;;;;9.07;4.13;;;;;;;15.99;70.19;101754.06;5035296;28;20025;-67
2021/06/24 00:55:54;;;;;;;8.93;3.78;;;;;;;16.03;70.26;101750.78;5035118;28;20037;-68
2021/06/24 00:58:27;;;;;;;12.18;3.67;;;;;;;16.00;69.79;101755.84;5034268;28;20076;-67
2021/06/24 01:00:54;;;;;;;6.80;3.63;;;;;;;16.03;69.76;101753.38;5052890;28;20532;-68
2021/06/24 01:03:20;;;;;;;8.30;3.60;;;;;;;15.94;70.33;101750.38;5052344;28;20360;-68
2021/06/24 01:05:46;;;;;;;7.90;3.80;;;;;;;15.95;70.04;101757.34;5034933;28;20051;-67
2021/06/24 01:08:16;;;;;;;6.35;3.58;;;;;;;15.98;70.09;101757.47;5035268;28;20104;-68
2021/06/24 01:10:44;;;;;;;10.75;4.07;;;;;;;15.92;70.02;101754.63;5035389;28;20036;-67
2021/06/24 01:13:10;;;;;;;6.47;4.15;;;;;;;15.93;70.46;101764.19;5031064;28;20527;-67
2021/06/24 01:15:36;;;;;;;12.05;4.45;;;;;;;15.89;70.53;101770.06;5031749;28;20496;-67
2021/06/24 01:18:02;;;;;;;9.68;4.05;;;;;;;15.92;70.60;101772.78;5032953;28;20104;-68
2021/06/24 01:20:34;;;;;;;8.90;3.85;;;;;;;15.96;70.65;101764.31;5032854;28;20363;-68
2021/06/24 01:23:00;;;;;;;8.80;4.07;;;;;;;15.94;70.57;101755.56;5030984;28;20021;-68
2021/06/24 01:25:27;;;;;;;9.77;3.78;;;;;;;15.93;70.59;101755.53;5031286;28;20025;-68
2021/06/24 01:28:06;;;;;;;13.07;4.28;;;;;;;15.89;70.72;101751.88;5048175;28;20509;-67
2021/06/24 01:30:32;;;;;;;11.38;4.40;;;;;;;15.85;70.60;101750.81;5031626;28;20026;-67
2021/06/24 01:32:57;;;;;;;7.75;4.20;;;;;;;15.90;70.67;101749.38;5032292;28;20037;-67
2021/06/24 01:35:25;;;;;;;11.38;4.43;;;;;;;15.95;70.34;101749.56;5031327;28;20505;-68
2021/06/24 01:37:58;;;;;;;11.57;4.82;;;;;;;15.99;70.23;101748.00;5031510;28;20072;-67
2021/06/24 01:40:25;;;;;;;7.18;4.13;;;;;;;15.95;70.53;101746.97;5031412;28;20386;-68
2021/06/24 01:42:51;;;;;;;9.60;4.43;;;;;;;15.88;70.72;101739.72;5031235;28;20564;-68
2021/06/24 01:45:17;;;;;;;10.10;4.70;;;;;;;15.82;71.11;101734.19;5031481;28;20463;-67
2021/06/24 01:47:42;;;;;;;13.23;4.68;;;;;;;15.84;70.60;101727.38;5030900;28;20025;-68
2021/06/24 01:50:10;;;;;;;9.75;4.35;;;;;;;15.90;70.77;101722.47;5032577;28;20072;-68
2021/06/24 01:52:36;;;;;;;9.55;5.13;;;;;;;15.89;70.46;101720.69;5032096;28;20486;-67
2021/06/24 01:55:03;;;;;;;10.02;4.95;;;;;;;15.87;70.96;101717.13;5014597;28;20063;-67
2021/06/24 01:57:28;;;;;;;13.02;4.72;;;;;;;15.82;70.66;101724.69;5031360;28;20105;-68
2021/06/24 01:59:54;;;;;;;11.93;4.90;;;;;;;15.77;71.13;101716.69;5032671;28;20040;-67
2021/06/24 02:02:19;;;;;;;8.55;4.40;;;;;;;15.80;70.65;101726.31;5044363;28;20095;-68
2021/06/24 02:04:45;;;;;;;12.85;5.07;;;;;;;15.78;70.78;101728.88;5032491;28;20029;-67
2021/06/24 02:07:10;;;;;;;11.00;4.97;;;;;;;15.77;70.73;101732.28;5031159;28;20108;-68
2021/06/24 02:09:36;;;;;;;10.57;4.85;;;;;;;15.83;70.50;101730.78;5033141;28;20025;-68
2021/06/24 02:12:01;;;;;;;12.10;4.93;;;;;;;15.77;70.54;101728.78;5037986;28;20021;-68
2021/06/24 02:14:28;;;;;;;7.18;4.05;;;;;;;15.75;70.52;101717.44;5038007;28;20071;-68
2021/06/24 02:16:54;;;;;;;10.60;4.63;;;;;;;15.73;70.68;101709.59;5038291;28;20025;-67
2021/06/24 02:19:19;;;;;;;8.63;4.60;;;;;;;15.70;71.00;101709.47;5038267;28;20028;-68
2021/06/24 02:21:45;;;;;;;9.05;4.78;;;;;;;15.62;71.01;101700.44;5055839;28;20466;-67
2021/06/24 02:24:10;;;;;;;11.40;5.00;;;;;;;15.70;71.16;101699.06;5055453;28;20025;-67
2021/06/24 02:26:36;;;;;;;8.13;4.63;;;;;;;15.62;70.93;101692.63;5055681;28;20029;-68
2021/06/24 02:29:01;;;;;;;7.25;4.80;;;;;;;15.58;71.38;101693.31;5021284;28;20163;-67
2021/06/24 02:31:27;;;;;;;9.25;4.90;;;;;;;15.60;71.12;101683.88;5038201;28;20025;-67
2021/06/24 02:33:53;;;;;;;7.72;4.88;;;;;;;15.62;71.29;101690.03;5056006;28;20021;-67
2021/06/24 02:36:19;;;;;;;10.55;5.28;;;;;;;15.55;71.18;101677.59;5055839;28;20497;-68
2021/06/24 02:38:44;;;;;;;10.68;5.07;;;;;;;15.61;70.89;101675.28;5037914;28;20096;-67
2021/06/24 02:41:10;;;;;;;9.20;4.50;;;;;;;15.61;71.13;101677.88;5055077;28;20565;-66
2021/06/24 02:43:36;;;;;;;7.03;4.40;;;;;;;15.60;71.31;101686.50;5052477;28;20523;-68
2021/06/24 02:46:02;;;;;;;10.02;4.63;;;;;;;15.52;71.46;101687.84;5054096;28;20025;-68
2021/06/24 02:48:28;;;;;;;10.70;4.75;;;;;;;15.50;71.72;101686.88;5054558;28;20032;-67
2021/06/24 02:50:53;;;;;;;14.82;4.78;;;;;;;15.38;71.84;101690.69;5058117;28;20077;-67
2021/06/24 02:53:19;;;;;;;12.38;4.70;;;;;;;15.43;71.80;101704.78;5056382;28;20025;-68
2021/06/24 02:55:46;;;;;;;7.05;4.93;;;;;;;15.43;71.70;101699.59;5054139;28;20028;-67
2021/06/24 02:58:11;;;;;;;11.02;5.28;;;;;;;15.47;71.52;101700.59;5054957;28;20042;-67
2021/06/24 03:00:37;;;;;;;8.13;4.80;;;;;;;15.58;71.21;101703.72;5054719;28;20033;-67
2021/06/24 03:03:02;;;;;;;10.60;4.22;;;;;;;15.52;71.35;101703.44;5063660;28;20402;-67
2021/06/24 03:05:28;;;;;;;8.00;4.97;;;;;;;15.51;71.33;101706.84;5065347;28;20047;-67
2021/06/24 03:07:53;;;;;;;7.63;5.18;;;;;;;15.52;71.39;101706.03;5065133;28;20055;-67
2021/06/24 03:10:20;;;;;;;16.02;5.20;;;;;;;15.51;71.16;101706.84;5063276;28;20037;-67
2021/06/24 03:12:46;;;;;;;9.55;5.30;;;;;;;15.53;70.95;101711.28;5061228;28;20431;-67
2021/06/24 03:15:12;;;;;;;14.63;5.03;;;;;;;15.48;71.22;101703.28;5064899;28;20109;-67
2021/06/24 03:17:38;;;;;;;11.95;5.50;;;;;;;15.49;71.27;101693.78;5053353;28;20040;-67
2021/06/24 03:20:07;;;;;;;8.95;5.20;;;;;;;15.45;71.25;101687.56;5063263;28;20123;-67
2021/06/24 03:22:34;;;;;;;11.27;4.57;;;;;;;15.52;71.06;101687.84;5063101;28;20494;-67
2021/06/24 03:25:00;;;;;;;10.07;4.45;;;;;;;15.41;71.56;101680.47;5065451;28;20042;-67
2021/06/24 03:27:26;;;;;;;6.40;4.53;;;;;;;15.41;71.75;101675.28;5063499;28;20153;-67
2021/06/24 03:29:51;;;;;;;9.88;4.88;;;;;;;15.43;71.39;101673.63;5054744;28;20497;-67
2021/06/24 03:32:17;;;;;;;10.73;5.32;;;;;;;15.40;70.95;101673.50;5055425;28;20035;-67
2021/06/24 03:34:42;;;;;;;12.77;4.63;;;;;;;15.37;71.33;101673.31;5053553;28;20102;-67
2021/06/24 03:37:08;;;;;;;7.93;4.28;;;;;;;15.41;71.47;101667.47;5064486;28;20029;-67
2021/06/24 03:39:33;;;;;;;7.32;4.60;;;;;;;15.47;71.23;101680.75;5051965;28;20032;-67
2021/06/24 03:41:59;;;;;;;15.50;4.55;;;;;;;15.50;70.99;101679.09;5062760;28;20033;-67
2021/06/24 03:44:25;;;;;;;6.45;4.38;;;;;;;15.44;70.94;101680.59;5060504;28;20013;-66
2021/06/24 03:46:51;;;;;;;11.38;4.72;;;;;;;15.45;70.66;101690.16;5054560;28;20017;-67
2021/06/24 03:49:17;;;;;;;12.15;4.80;;;;;;;15.48;70.53;101681.63;5050678;28;20474;-67
2021/06/24 03:51:43;;;;;;;10.55;4.65;;;;;;;15.51;70.44;101691.25;5055350;28;20501;-67
2021/06/24 03:54:08;;;;;;;12.23;4.80;;;;;;;15.55;70.36;101698.38;5063344;28;20023;-67
2021/06/24 03:56:34;;;;;;;14.63;4.97;;;;;;;15.50;70.38;101705.06;5063476;28;20069;-67
2021/06/24 03:59:00;;;;;;;8.93;4.88;;;;;;;15.56;70.07;101701.03;5052450;28;20033;-67
2021/06/24 04:01:25;;;;;;;13.18;5.43;;;;;;;15.44;70.34;101706.56;5062207;28;20059;-67
2021/06/24 04:03:51;;;;;;;8.68;4.40;;;;;;;15.47;70.36;101705.78;5054120;28;20020;-67
2021/06/24 04:06:17;;;;;;;8.93;4.45;;;;;;;15.44;70.23;101711.75;5062970;28;20025;-67
2021/06/24 04:08:42;;;;;;;7.03;3.65;;;;;;;15.51;70.02;101702.53;5064535;28;20027;-67
2021/06/24 04:11:08;;;;;;;8.02;4.35;;;;;;;15.48;70.00;101708.47;5048512;28;20025;-67
2021/06/24 04:13:33;;;;;;;9.23;4.50;;;;;;;15.51;69.72;101706.84;5051575;28;20051;-67
2021/06/24 04:15:59;;;;;;;9.95;4.60;;;;;;;15.47;69.83;101705.78;5062470;28;20125;-66
2021/06/24 04:18:24;;;;;;;8.73;4.22;;;;;;;15.50;69.88;101705.06;5064351;28;20024;-67
2021/06/24 04:20:50;;;;;;;7.18;4.13;;;;;;;15.46;69.63;101699.72;5050065;28;20024;-67
2021/06/24 04:23:16;;;;;;;9.63;4.47;;;;;;;15.52;69.68;101703.44;5062837;28;20017;-67
2021/06/24 04:25:41;;;;;;;8.35;4.00;;;;;;;15.54;69.37;101707.84;5064283;28;20450;-67
2021/06/24 04:28:07;;;;;;;9.65;4.85;;;;;;;15.59;69.62;101705.47;5062519;28;20047;-67
2021/06/24 04:30:33;;;;;;;12.98;4.82;;;;;;;15.60;69.51;101707.25;5062592;28;20032;-67
2021/06/24 04:32:59;;;;;;;8.45;4.10;;;;;;;15.65;68.90;101702.25;5063639;28;20028;-67
2021/06/24 04:35:26;;;;;;;13.20;4.90;;;;;;;15.61;69.20;101703.84;5047318;28;20481;-67
2021/06/24 04:37:52;;;;;;;6.32;3.92;;;;;;;15.72;68.47;101713.00;5053639;28;20023;-67
2021/06/24 04:40:17;;;;;;;12.13;5.53;;;;;;;15.71;68.75;101706.03;5052152;28;20104;-68
2021/06/24 04:42:43;;;;;;;8.30;4.15;;;;;;;15.72;69.00;101710.41;5060955;28;20461;-67
2021/06/24 04:45:10;;;;;;;5.85;3.67;;;;;;;15.67;68.69;101714.50;5058229;28;20169;-67
2021/06/24 04:47:36;;;;;;;8.98;4.28;;;;;;;15.73;68.84;101706.09;5061327;28;20032;-68
2021/06/24 04:50:02;;;;;;;11.45;4.03;;;;;;;15.72;68.60;101707.81;5061234;28;20489;-67
2021/06/24 04:52:27;;;;;;;8.65;5.00;;;;;;;15.71;68.53;101711.22;5063139;28;20404;-67
2021/06/24 04:54:53;;;;;;;11.48;4.45;;;;;;;15.76;68.61;101704.53;5063074;28;20025;-67
2021/06/24 04:57:18;;;;;;;8.52;4.15;;;;;;;15.70;68.60;101688.69;5061658;28;20029;-67
2021/06/24 04:59:44;;;;;;;9.57;3.97;;;;;;;15.72;68.64;101697.44;5059007;28;20021;-67
2021/06/24 05:02:10;;;;;;;12.90;3.88;;;;;;;15.75;68.20;101692.38;5062340;28;20033;-67
2021/06/24 05:04:36;;;;;;;7.15;4.05;;;;;;;15.81;68.59;101701.25;5062759;28;20096;-67
2021/06/24 05:07:08;;;;;;;9.48;4.47;;;;;;;15.82;68.04;101698.72;5052029;28;20469;-67
2021/06/24 05:09:39;;;;;;;11.35;4.30;;;;;;;15.91;67.94;101693.97;5059913;28;20033;-67
2021/06/24 05:12:08;;;;;;;6.45;3.83;;;;;;;15.92;67.87;101694.84;5067127;28;20165;-67
2021/06/24 05:14:34;;;;;;;6.88;3.47;;;;;;;15.99;67.39;101696.91;5058387;28;20036;-68
2021/06/24 05:16:59;;;;;;;8.45;4.03;;;;;;;16.06;66.96;101692.88;5035010;28;20029;-68
2021/06/24 05:19:27;;;;;;;8.73;3.90;;;;;;;16.04;67.25;101687.59;5053072;28;20132;-68
2021/06/24 05:21:52;;;;;;;11.02;3.88;;;;;;;16.07;67.61;101694.66;5052729;28;20029;-68
2021/06/24 05:24:18;;;;;;;9.95;4.78;;;;;;;16.03;67.84;101693.63;5043954;28;20051;-67
2021/06/24 05:26:43;;;;;;;8.55;4.13;;;;;;;16.12;67.02;101681.84;5041886;28;20079;-68
2021/06/24 05:29:09;;;;;;;11.38;4.22;;;;;;;16.10;67.36;101680.88;5052652;28;20029;-67
2021/06/24 05:31:36;;;;;;;9.25;4.18;;;;;;;16.14;67.23;101675.00;5059117;28;20081;-67
2021/06/24 05:34:01;;;;;;;6.93;4.07;;;;;;;16.13;67.22;101679.31;5063914;28;20021;-67
2021/06/24 05:36:27;;;;;;;8.70;4.20;;;;;;;16.25;67.22;101663.34;5049873;28;20024;-67
2021/06/24 05:38:52;;;;;;;10.43;3.92;;;;;;;16.32;67.02;101670.56;5049517;28;20025;-68
2021/06/24 05:41:18;;;;;;;7.30;4.03;;;;;;;16.35;66.00;101668.09;5062320;28;20028;-68
2021/06/24 05:43:43;;;;;;;6.97;3.80;;;;;;;16.42;65.61;101660.56;5059962;28;20110;-68
2021/06/24 05:46:09;;;;;;;12.38;3.75;;;;;;;16.48;65.46;101660.84;5062748;28;20075;-67
2021/06/24 05:48:34;;;;;;;7.63;3.80;;;;;;;16.65;64.79;101665.00;5065360;28;20021;-68
2021/06/24 05:51:02;;;;;;;9.07;3.58;;;;;;;16.79;63.86;101660.34;5064561;28;20078;-68
2021/06/24 05:53:27;;;;;;;6.93;2.92;;;;;;;17.00;62.69;101666.38;5063581;28;20027;-68
2021/06/24 05:55:54;;;;;;;8.65;2.95;;;;;;;17.11;61.83;101659.88;5061162;28;20301;-68
2021/06/24 05:58:21;;;;;;;4.03;2.50;;;;;;;17.18;62.11;101651.47;5034964;28;20328;-68
2021/06/24 06:00:49;;;;;;;7.63;3.53;;;;;;;17.29;62.09;101664.00;5035893;28;20029;-68
2021/06/24 06:03:15;;;;;;;7.07;2.70;;;;;;;17.35;61.55;101659.03;5054467;28;20017;-68
2021/06/24 06:05:41;;;;;;;5.45;2.90;;;;;;;17.30;59.85;101665.78;5054867;28;20024;-68
2021/06/24 06:08:07;;;;;;;9.07;2.80;;;;;;;17.31;60.03;101667.56;5054170;28;20028;-68
2021/06/24 06:10:35;;;;;;;6.68;2.67;;;;;;;17.30;59.45;101665.78;5052830;28;20110;-68
2021/06/24 06:13:00;;;;;;;7.07;2.90;;;;;;;17.25;60.17;101662.13;5031776;28;20387;-68
2021/06/24 06:15:26;;;;;;;7.35;2.70;;;;;;;17.33;59.85;101661.59;5032370;28;20040;-68
2021/06/24 06:17:51;;;;;;;11.32;2.72;;;;;;;17.21;59.52;101659.41;5033538;28;20395;-68
2021/06/24 06:20:17;;;;;;;4.65;2.17;;;;;;;17.36;59.47;101668.63;5033101;28;20665;-68
2021/06/24 06:22:43;;;;;;;5.00;2.08;;;;;;;17.46;58.97;101673.34;5032940;28;20087;-68
2021/06/24 06:25:10;;;;;;;4.00;1.85;;;;;;;17.50;58.13;101667.44;5034265;28;20026;-68
2021/06/24 06:27:35;;;;;;;4.72;1.98;;;;;;;17.60;58.19;101675.59;5033162;28;20483;-67
2021/06/24 06:30:01;;;;;;;4.15;1.92;;;;;;;17.56;58.31;101676.31;5033352;28;20075;-67
2021/06/24 06:32:27;;;;;;;7.97;2.53;;;;;;;17.63;58.09;101676.56;5033184;28;20075;-68
2021/06/24 06:34:52;;;;;;;7.63;2.75;;;;;;;17.72;58.45;101681.25;5033968;28;20032;-68
2021/06/24 06:37:18;;;;;;;6.57;2.70;;;;;;;17.80;56.82;101679.81;5034434;28;20061;-67
2021/06/24 06:39:43;;;;;;;3.58;2.30;;;;;;;17.94;58.00;101682.88;5034414;28;20029;-68
2021/06/24 06:42:09;;;;;;;5.75;2.05;;;;;;;18.09;57.29;101672.16;5033770;28;20461;-67
2021/06/24 06:44:35;;;;;;;6.85;2.30;;;;;;;18.12;55.35;101670.47;5034306;28;20466;-67
2021/06/24 06:47:00;;;;;;;3.85;1.88;;;;;;;18.15;56.63;101675.81;5033094;28;20043;-68
2021/06/24 06:49:26;;;;;;;6.55;2.03;;;;;;;18.16;55.91;101677.56;5033117;28;20111;-68
2021/06/24 06:51:51;;;;;;;5.05;2.13;;;;;;;18.20;55.74;101674.25;5033169;28;20020;-68
2021/06/24 06:54:17;;;;;;;6.18;2.85;;;;;;;18.43;55.03;101671.50;5032577;28;20024;-69
2021/06/24 06:56:46;;;;;;;6.07;2.10;;;;;;;18.53;55.02;101668.38;5033923;28;20022;-68
2021/06/24 06:59:12;;;;;;;8.20;2.08;;;;;;;18.64;55.27;101667.03;5034017;28;20045;-68
2021/06/24 07:01:38;;;;;;;6.22;2.75;;;;;;;18.68;55.03;101662.78;5033253;28;20450;-68
2021/06/24 07:04:04;;;;;;;7.80;2.10;;;;;;;18.53;55.42;101673.59;5033751;28;20482;-68
2021/06/24 07:06:29;;;;;;;7.13;2.08;;;;;;;18.67;54.00;101677.56;5033692;28;20021;-68
2021/06/24 07:08:58;;;;;;;8.32;1.73;;;;;;;18.68;54.14;101663.69;5033752;28;20076;-68
2021/06/24 07:11:24;;;;;;;5.73;2.10;;;;;;;18.74;54.25;101662.09;5031777;28;20108;-68
2021/06/24 07:13:50;;;;;;;4.90;2.10;;;;;;;18.60;54.08;101657.34;5032314;28;20068;-68
2021/06/24 07:16:17;;;;;;;5.28;2.20;;;;;;;18.98;53.28;101662.91;5031662;28;20037;-68
2021/06/24 07:18:43;;;;;;;4.53;2.05;;;;;;;19.16;53.22;101677.34;5030078;28;20033;-68
2021/06/24 07:21:09;;;;;;;5.18;2.15;;;;;;;19.10;53.87;101666.72;5030836;28;20052;-68
2021/06/24 07:23:35;;;;;;;10.10;2.28;;;;;;;19.09;51.77;101662.34;5031178;28;20029;-67
2021/06/24 07:26:01;;;;;;;5.85;2.33;;;;;;;19.04;52.63;101666.53;5032247;28;20036;-68
2021/06/24 07:28:27;;;;;;;7.43;2.33;;;;;;;19.06;53.55;101664.84;5030908;28;20021;-68
2021/06/24 07:30:53;;;;;;;6.50;1.92;;;;;;;18.85;53.53;101665.94;5031321;28;20383;-67
2021/06/24 07:33:18;;;;;;;5.50;2.20;;;;;;;18.67;53.56;101664.50;5031371;28;20426;-68
2021/06/24 07:35:44;;;;;;;4.63;1.73;;;;;;;18.38;53.36;101661.81;5033840;28;20654;-68
2021/06/24 07:38:10;;;;;;;5.75;2.15;;;;;;;18.12;55.62;101666.16;5030315;28;20029;-68
2021/06/24 07:40:36;;;;;;;6.13;2.08;;;;;;;18.31;55.08;101652.03;5029983;28;20107;-68
2021/06/24 07:43:02;;;;;;;5.80;2.10;;;;;;;18.60;56.16;101654.72;5031806;28;20048;-68
2021/06/24 07:45:28;;;;;;;5.50;1.88;;;;;;;18.90;53.82;101653.00;5030369;28;20467;-68
2021/06/24 07:47:53;;;;;;;5.53;1.95;;;;;;;19.17;55.67;101653.00;5031591;28;20079;-68
2021/06/24 07:50:19;;;;;;;9.00;2.75;;;;;;;18.96;54.23;101654.09;5031224;28;20097;-68
2021/06/24 07:52:45;;;;;;;4.90;1.77;;;;;;;19.07;52.52;101648.34;5030034;28;20037;-68
2021/06/24 07:55:11;;;;;;;5.65;2.15;;;;;;;19.06;54.61;101644.84;5031281;28;20028;-69
2021/06/24 07:57:37;;;;;;;4.55;2.33;;;;;;;19.18;51.36;101641.72;5030067;28;20021;-68
2021/06/24 08:00:07;;;;;;;8.82;1.90;;;;;;;19.51;50.87;101643.53;5030057;28;20036;-68
2021/06/24 08:02:32;;;;;;;3.90;1.70;;;;;;;20.01;52.20;101629.22;5029969;28;20030;-68
2021/06/24 08:04:58;;;;;;;6.20;1.85;;;;;;;19.58;51.42;101643.69;5029736;28;20040;-68
2021/06/24 08:07:23;;;;;;;5.70;1.75;;;;;;;20.07;51.11;101623.25;5028345;28;20051;-68
2021/06/24 08:09:51;;;;;;;6.93;2.65;;;;;;;19.98;50.69;101629.16;5030388;28;20035;-68
2021/06/24 08:12:16;;;;;;;6.82;2.08;;;;;;;19.59;51.12;101624.56;5032150;28;20052;-69
2021/06/24 08:14:42;;;;;;;5.72;1.92;;;;;;;20.06;51.28;101614.53;5033059;28;20082;-69
2021/06/24 08:17:07;;;;;;;5.47;2.33;;;;;;;20.03;49.45;101624.03;5033573;28;20040;-69
2021/06/24 08:19:33;;;;;;;8.27;2.15;;;;;;;20.62;49.45;101618.50;5032470;28;20059;-69
2021/06/24 08:21:59;;;;;;;2.22;1.50;;;;;;;20.96;47.78;101618.41;5032521;28;20119;-68
2021/06/24 08:24:26;;;;;;;5.82;2.20;;;;;;;21.22;45.92;101616.34;5032657;28;20055;-68
2021/06/24 08:26:52;;;;;;;7.63;2.13;;;;;;;20.81;47.43;101614.59;5029934;28;20017;-69
2021/06/24 08:29:18;;;;;;;8.15;1.90;;;;;;;20.98;48.40;101612.38;5032691;28;20509;-69
2021/06/24 08:31:43;;;;;;;4.50;1.85;;;;;;;21.20;46.15;101623.28;5050410;28;20524;-68
2021/06/24 08:34:09;;;;;;;4.70;1.98;;;;;;;21.24;45.85;101614.63;5050219;28;20021;-69
2021/06/24 08:36:35;;;;;;;4.88;1.65;;;;;;;21.15;44.89;101610.09;5050520;28;20132;-68
2021/06/24 08:39:00;;;;;;;4.55;2.35;;;;;;;21.69;46.18;101601.53;5050668;28;20116;-69
2021/06/24 08:41:26;;;;;;;4.45;2.28;;;;;;;22.22;43.58;101598.09;5034508;28;20074;-69
2021/06/24 08:43:53;;;;;;;5.88;2.20;;;;;;;22.15;44.18;101602.38;5034050;28;20104;-70
2021/06/24 08:46:20;;;;;;;4.93;2.03;;;;;;;22.15;43.99;101602.38;5034021;28;20351;-68
2021/06/24 08:48:46;;;;;;;4.70;1.67;;;;;;;22.42;42.01;101601.03;5033919;28;20070;-69
2021/06/24 08:51:12;;;;;;;5.30;1.40;;;;;;;23.02;43.39;101601.03;5052793;28;20033;-70
2021/06/24 08:53:37;;;;;;;4.63;2.13;;;;;;;22.88;42.08;101600.84;5035345;28;20106;-69
2021/06/24 08:56:04;;;;;;;2.50;1.35;;;;;;;22.89;40.79;101596.50;5053026;28;20021;-72
2021/06/24 08:58:29;;;;;;;3.70;1.40;;;;;;;23.08;39.90;101594.09;5035457;28;20029;-71
2021/06/24 09:00:55;;;;;;;5.68;1.48;;;;;;;23.52;39.78;101593.75;5035156;28;20385;-71
2021/06/24 09:03:28;;;;;;;3.33;1.40;;;;;;;23.82;39.07;101592.28;5052766;28;20017;-69
2021/06/24 09:06:04;;;;;;;3.70;1.38;;;;;;;23.37;40.31;101598.84;5034525;28;20025;-71
2021/06/24 09:08:40;;;;;;;4.88;1.30;;;;;;;23.37;39.89;101598.84;5034956;28;20098;-70
2021/06/24 09:11:22;;;;;;;3.40;1.40;;;;;;;22.91;39.33;101595.63;5052759;28;20044;-71
2021/06/24 09:14:17;;;;;;;5.15;1.52;;;;;;;22.14;42.44;101595.34;5034912;28;20040;-71
2021/06/24 09:16:44;;;;;;;6.15;1.95;;;;;;;22.21;42.66;101590.22;5034740;28;20033;-70
2021/06/24 09:19:24;;;;;;;4.53;1.50;;;;;;;22.39;41.96;101585.25;5051889;28;20478;-70
2021/06/24 09:21:56;;;;;;;3.15;1.17;;;;;;;22.79;41.69;101594.56;5051951;28;20116;-70
2021/06/24 09:24:21;;;;;;;2.92;1.13;;;;;;;22.92;41.52;101601.78;5052779;28;20092;-69
2021/06/24 09:26:47;;;;;;;3.50;1.83;;;;;;;23.36;40.38;101591.81;5052796;28;20551;-71
2021/06/24 09:29:16;;;;;;;3.45;1.20;;;;;;;23.25;39.55;101589.97;5034442;28;20345;-69
2021/06/24 09:31:43;;;;;;;3.72;1.58;;;;;;;23.63;39.52;101594.75;5051063;28;20443;-71
2021/06/24 09:34:10;;;;;;;4.55;1.50;;;;;;;23.71;39.86;101583.41;5023565;28;20025;-71
2021/06/24 09:36:38;;;;;;;4.70;1.85;;;;;;;23.57;41.29;101586.78;5029396;28;20025;-71
2021/06/24 09:39:24;;;;;;;4.70;1.80;;;;;;;22.97;41.48;101589.59;5032985;28;20033;-70
2021/06/24 09:42:15;;;;;;;7.50;1.58;;;;;;;22.49;42.51;101595.91;5048691;28;20020;-69
2021/06/24 09:44:43;;;;;;;7.88;1.65;;;;;;;22.24;42.91;101579.75;5038588;28;20029;-73
2021/06/24 09:47:26;;;;;;;5.13;1.65;;;;;;;22.27;42.78;101574.56;5033142;28;20041;-73
2021/06/24 09:50:12;;;;;;;4.65;1.55;;;;;;;22.10;43.01;101583.03;5050874;28;20104;-73
2021/06/24 09:52:38;;;;;;;2.65;1.35;;;;;;;23.08;42.67;101587.09;5016397;28;20119;-75
2021/06/24 09:55:08;;;;;;;4.68;1.20;;;;;;;23.28;41.91;101584.75;5033317;28;20099;-74
2021/06/24 09:57:36;;;;;;;4.82;1.65;;;;;;;23.37;41.05;101577.81;5032482;28;20025;-69
2021/06/24 10:00:24;;;;;;;5.50;1.60;;;;;;;24.18;39.06;101580.38;5033507;28;20025;-68
2021/06/24 10:03:13;;;;;;;4.85;1.55;;;;;;;24.44;38.15;101571.75;5048139;28;20055;-69
2021/06/24 10:05:40;;;;;;;2.38;1.45;;;;;;;24.53;36.91;101580.59;5043171;28;20029;-69
2021/06/24 10:08:06;;;;;;;6.88;1.60;;;;;;;25.70;37.10;101579.31;5048847;28;20033;-68
2021/06/24 10:10:35;;;;;;;4.93;1.63;;;;;;;25.19;36.52;101577.41;5050161;28;20187;-68
2021/06/24 10:13:01;;;;;;;4.35;1.95;;;;;;;24.55;40.54;101578.84;5031596;28;20095;-72
2021/06/24 10:15:28;;;;;;;3.85;1.40;;;;;;;23.78;39.73;101575.59;5042965;28;20420;-70
2021/06/24 10:17:55;;;;;;;6.78;1.65;;;;;;;23.73;40.26;101584.31;5047109;28;20025;-71
2021/06/24 10:20:21;;;;;;;4.40;2.17;;;;;;;23.39;40.76;101576.09;5030499;28;20029;-71
2021/06/24 10:23:14;;;;;;;5.72;1.90;;;;;;;23.03;39.62;101573.91;5026904;28;20041;-69
2021/06/24 10:25:42;;;;;;;3.08;1.80;;;;;;;22.85;41.93;101573.69;5024094;28;20025;-71
2021/06/24 10:28:09;;;;;;;4.82;1.77;;;;;;;22.36;41.73;101572.06;5023402;28;20079;-71
2021/06/24 10:30:42;;;;;;;3.20;1.50;;;;;;;22.41;43.24;101572.16;5026037;28;20032;-69
2021/06/24 10:33:11;;;;;;;6.80;1.85;;;;;;;22.59;41.76;101571.56;5034201;28;20032;-71
2021/06/24 10:35:38;;;;;;;;;;;;;;;22.69;41.18;101562.94;5033184;28;20033;-71
2021/06/24 10:38:05;;;;;;;4.28;2.05;;;;;;;22.82;41.53;101563.13;5048370;28;19913;-70
2021/06/24 10:40:33;;;;;;;2.75;1.63;;;;;;;22.64;42.38;101569.88;5033266;28;20096;-70
2021/06/24 10:43:08;;;;;;;4.00;1.77;;;;;;;22.82;42.57;101565.75;5051124;28;20450;-71
2021/06/24 10:45:34;;;;;;;6.00;2.40;;;;;;;22.60;41.87;101557.56;5032068;28;20029;-69
2021/06/24 10:48:22;;;;;;;3.30;1.88;;;;;;;22.79;41.72;101557.81;5051876;28;20456;-70
2021/06/24 10:51:08;;;;;;;5.17;2.23;;;;;;;22.45;42.16;101556.50;5048909;28;20013;-71
2021/06/24 10:53:35;;;;;;;6.18;2.10;;;;;;;22.42;43.18;101548.53;5031565;28;20033;-71
2021/06/24 10:56:02;;;;;;;4.95;1.90;;;;;;;22.20;44.53;101556.97;5051200;28;20075;-71
2021/06/24 10:58:30;;;;;;;5.05;1.90;;;;;;;22.36;44.21;101547.59;5033696;28;20029;-71
2021/06/24 11:00:57;;;;;;;7.77;2.07;;;;;;;22.32;45.49;101541.41;5050171;28;20020;-71
2021/06/24 11:03:23;;;;;;;2.95;1.67;;;;;;;22.13;43.62;101546.38;5033675;28;20035;-71
2021/06/24 11:05:49;;;;;;;7.22;2.25;;;;;;;22.21;43.61;101553.47;5033619;28;20025;-72
2021/06/24 11:08:15;;;;;;;3.35;1.95;;;;;;;22.45;43.58;101550.38;5050997;28;20096;-68
2021/06/24 11:11:04;;;;;;;5.07;2.33;;;;;;;22.51;42.13;101554.81;5053170;28;20131;-71
2021/06/24 11:13:46;;;;;;;5.20;2.40;;;;;;;22.39;42.39;101548.50;5035368;28;20048;-72
2021/06/24 11:16:20;;;;;;;6.25;2.13;;;;;;;22.16;43.29;101542.91;5050079;28;20028;-73
2021/06/24 11:18:55;;;;;;;11.18;2.65;;;;;;;22.20;44.15;101551.72;5052863;28;20021;-72
2021/06/24 11:21:28;;;;;;;2.78;1.77;;;;;;;22.13;45.00;101549.00;5035738;28;20016;-72
2021/06/24 11:23:59;;;;;;;5.05;2.22;;;;;;;22.12;43.92;101544.59;5053135;28;20582;-74